sensor_id;sensor_type;location;lat;lon;timestamp;P1;durP1;ratioP1;P2;durP2;ratioP2
19341;SDS011;9807;48.258;12.690;2023-09-18T00:02:21;5.73;;;4.80;;
19341;SDS011;9807;48.258;12.690;2023-09-18T00:04:47;5.17;;;4.30;;
19341;SDS011;9807;48.258;12.690;2023-09-18T00:07:13;7.37;;;4.57;;
19341;SDS011;9807;48.258;12.690;2023-09-18T00:09:39;4.17;;;3.77;;
19341;SDS011;9807;48.258;12.690;2023-09-18T00:12:05;4.23;;;3.83;;
19341;SDS011;9807;48.258;12.690;2023-09-18T00:14:31;4.63;;;4.23;;
19341;SDS011;9807;48.258;12.690;2023-09-18T00:16:57;4.60;;;4.20;;
19341;SDS011;9807;48.258;12.690;2023-09-18T00:19:23;4.70;;;4.30;;
19341;SDS011;9807;48.258;12.690;2023-09-18T00:21:49;4.60;;;4.20;;
19341;SDS011;9807;48.258;12.690;2023-09-18T00:24:16;5.07;;;4.37;;
19341;SDS011;9807;48.258;12.690;2023-09-18T00:26:42;8.33;;;4.37;;
19341;SDS011;9807;48.258;12.690;2023-09-18T00:29:08;4.97;;;4.57;;
19341;SDS011;9807;48.258;12.690;2023-09-18T00:31:33;6.93;;;4.27;;
19341;SDS011;9807;48.258;12.690;2023-09-18T00:33:59;4.77;;;4.10;;
19341;SDS011;9807;48.258;12.690;2023-09-18T00:36:25;4.30;;;3.90;;
19341;SDS011;9807;48.258;12.690;2023-09-18T00:38:50;4.70;;;4.20;;
19341;SDS011;9807;48.258;12.690;2023-09-18T00:41:16;4.50;;;4.10;;
19341;SDS011;9807;48.258;12.690;2023-09-18T00:43:41;4.80;;;4.30;;
19341;SDS011;9807;48.258;12.690;2023-09-18T00:46:07;4.77;;;4.03;;
19341;SDS011;9807;48.258;12.690;2023-09-18T00:48:34;5.37;;;4.40;;
19341;SDS011;9807;48.258;12.690;2023-09-18T00:50:59;5.20;;;4.67;;
19341;SDS011;9807;48.258;12.690;2023-09-18T00:53:26;5.43;;;4.83;;
19341;SDS011;9807;48.258;12.690;2023-09-18T00:55:53;7.03;;;5.20;;
19341;SDS011;9807;48.258;12.690;2023-09-18T00:58:20;5.83;;;5.30;;
19341;SDS011;9807;48.258;12.690;2023-09-18T01:00:46;5.43;;;4.93;;
19341;SDS011;9807;48.258;12.690;2023-09-18T01:03:16;5.10;;;4.60;;
19341;SDS011;9807;48.258;12.690;2023-09-18T01:05:43;6.50;;;4.93;;
19341;SDS011;9807;48.258;12.690;2023-09-18T01:08:09;6.43;;;4.90;;
19341;SDS011;9807;48.258;12.690;2023-09-18T01:10:40;5.37;;;4.87;;
19341;SDS011;9807;48.258;12.690;2023-09-18T01:13:23;4.80;;;4.30;;
19341;SDS011;9807;48.258;12.690;2023-09-18T01:16:13;5.63;;;5.13;;
19341;SDS011;9807;48.258;12.690;2023-09-18T01:18:51;6.53;;;5.90;;
19341;SDS011;9807;48.258;12.690;2023-09-18T01:21:20;5.50;;;4.77;;
19341;SDS011;9807;48.258;12.690;2023-09-18T01:23:46;4.37;;;3.97;;
19341;SDS011;9807;48.258;12.690;2023-09-18T01:26:14;5.50;;;4.70;;
19341;SDS011;9807;48.258;12.690;2023-09-18T01:28:39;6.47;;;4.33;;
19341;SDS011;9807;48.258;12.690;2023-09-18T01:31:05;4.20;;;3.90;;
19341;SDS011;9807;48.258;12.690;2023-09-18T01:33:31;4.43;;;4.03;;
19341;SDS011;9807;48.258;12.690;2023-09-18T01:35:59;4.80;;;4.00;;
19341;SDS011;9807;48.258;12.690;2023-09-18T01:38:25;5.90;;;4.60;;
19341;SDS011;9807;48.258;12.690;2023-09-18T01:40:52;5.50;;;4.60;;
19341;SDS011;9807;48.258;12.690;2023-09-18T01:43:19;4.83;;;4.43;;
19341;SDS011;9807;48.258;12.690;2023-09-18T01:45:45;5.10;;;4.60;;
19341;SDS011;9807;48.258;12.690;2023-09-18T01:48:12;4.73;;;4.10;;
19341;SDS011;9807;48.258;12.690;2023-09-18T01:50:38;5.13;;;4.63;;
19341;SDS011;9807;48.258;12.690;2023-09-18T01:53:05;4.63;;;4.23;;
19341;SDS011;9807;48.258;12.690;2023-09-18T01:55:31;6.17;;;5.23;;
19341;SDS011;9807;48.258;12.690;2023-09-18T01:57:58;7.90;;;5.33;;
19341;SDS011;9807;48.258;12.690;2023-09-18T02:00:23;5.83;;;4.63;;
19341;SDS011;9807;48.258;12.690;2023-09-18T02:02:49;8.23;;;4.97;;
19341;SDS011;9807;48.258;12.690;2023-09-18T02:05:15;5.77;;;5.27;;
19341;SDS011;9807;48.258;12.690;2023-09-18T02:07:41;5.60;;;4.83;;
19341;SDS011;9807;48.258;12.690;2023-09-18T02:10:07;5.57;;;4.73;;
19341;SDS011;9807;48.258;12.690;2023-09-18T02:12:33;5.13;;;4.70;;
19341;SDS011;9807;48.258;12.690;2023-09-18T02:14:58;5.20;;;4.70;;
19341;SDS011;9807;48.258;12.690;2023-09-18T02:17:30;6.30;;;5.20;;
19341;SDS011;9807;48.258;12.690;2023-09-18T02:19:56;5.23;;;4.80;;
19341;SDS011;9807;48.258;12.690;2023-09-18T02:22:21;6.13;;;5.40;;
19341;SDS011;9807;48.258;12.690;2023-09-18T02:24:47;5.40;;;4.90;;
19341;SDS011;9807;48.258;12.690;2023-09-18T02:27:13;5.27;;;4.80;;
19341;SDS011;9807;48.258;12.690;2023-09-18T02:29:39;5.77;;;5.17;;
19341;SDS011;9807;48.258;12.690;2023-09-18T02:32:04;5.03;;;4.50;;
19341;SDS011;9807;48.258;12.690;2023-09-18T02:34:30;5.47;;;4.93;;
19341;SDS011;9807;48.258;12.690;2023-09-18T02:36:56;5.53;;;4.83;;
19341;SDS011;9807;48.258;12.690;2023-09-18T02:39:22;6.07;;;5.47;;
19341;SDS011;9807;48.258;12.690;2023-09-18T02:41:47;6.87;;;5.70;;
19341;SDS011;9807;48.258;12.690;2023-09-18T02:44:13;6.83;;;5.50;;
19341;SDS011;9807;48.258;12.690;2023-09-18T02:46:39;5.53;;;4.90;;
19341;SDS011;9807;48.258;12.690;2023-09-18T02:49:07;5.77;;;4.70;;
19341;SDS011;9807;48.258;12.690;2023-09-18T02:51:32;4.77;;;4.37;;
19341;SDS011;9807;48.258;12.690;2023-09-18T02:53:58;4.97;;;4.43;;
19341;SDS011;9807;48.258;12.690;2023-09-18T02:56:24;5.67;;;4.83;;
19341;SDS011;9807;48.258;12.690;2023-09-18T02:58:49;7.03;;;5.40;;
19341;SDS011;9807;48.258;12.690;2023-09-18T03:01:15;5.27;;;4.73;;
19341;SDS011;9807;48.258;12.690;2023-09-18T03:03:41;5.20;;;4.70;;
19341;SDS011;9807;48.258;12.690;2023-09-18T03:06:08;4.63;;;4.23;;
19341;SDS011;9807;48.258;12.690;2023-09-18T03:08:34;4.77;;;4.37;;
19341;SDS011;9807;48.258;12.690;2023-09-18T03:11:00;6.00;;;4.70;;
19341;SDS011;9807;48.258;12.690;2023-09-18T03:13:26;5.10;;;4.67;;
19341;SDS011;9807;48.258;12.690;2023-09-18T03:15:53;6.87;;;6.17;;
19341;SDS011;9807;48.258;12.690;2023-09-18T03:18:18;8.93;;;6.80;;
19341;SDS011;9807;48.258;12.690;2023-09-18T03:20:44;6.20;;;5.30;;
19341;SDS011;9807;48.258;12.690;2023-09-18T03:23:10;6.83;;;5.87;;
19341;SDS011;9807;48.258;12.690;2023-09-18T03:25:36;8.30;;;5.60;;
19341;SDS011;9807;48.258;12.690;2023-09-18T03:28:02;9.23;;;7.83;;
19341;SDS011;9807;48.258;12.690;2023-09-18T03:30:28;9.17;;;7.23;;
19341;SDS011;9807;48.258;12.690;2023-09-18T03:32:55;6.90;;;5.57;;
19341;SDS011;9807;48.258;12.690;2023-09-18T03:35:21;5.73;;;5.10;;
19341;SDS011;9807;48.258;12.690;2023-09-18T03:37:47;5.83;;;5.23;;
19341;SDS011;9807;48.258;12.690;2023-09-18T03:40:13;6.50;;;5.20;;
19341;SDS011;9807;48.258;12.690;2023-09-18T03:42:40;6.10;;;5.50;;
19341;SDS011;9807;48.258;12.690;2023-09-18T03:45:06;6.50;;;5.90;;
19341;SDS011;9807;48.258;12.690;2023-09-18T03:47:36;5.60;;;5.00;;
19341;SDS011;9807;48.258;12.690;2023-09-18T03:50:04;6.80;;;6.10;;
19341;SDS011;9807;48.258;12.690;2023-09-18T03:52:31;5.70;;;5.20;;
19341;SDS011;9807;48.258;12.690;2023-09-18T03:54:57;7.57;;;6.03;;
19341;SDS011;9807;48.258;12.690;2023-09-18T03:57:23;6.57;;;5.83;;
19341;SDS011;9807;48.258;12.690;2023-09-18T03:59:50;6.60;;;6.00;;
19341;SDS011;9807;48.258;12.690;2023-09-18T04:02:15;5.90;;;5.30;;
19341;SDS011;9807;48.258;12.690;2023-09-18T04:04:41;5.50;;;5.00;;
19341;SDS011;9807;48.258;12.690;2023-09-18T04:07:07;5.83;;;5.03;;
19341;SDS011;9807;48.258;12.690;2023-09-18T04:09:33;5.40;;;4.90;;
19341;SDS011;9807;48.258;12.690;2023-09-18T04:12:00;5.53;;;5.03;;
19341;SDS011;9807;48.258;12.690;2023-09-18T04:14:26;5.30;;;4.80;;
19341;SDS011;9807;48.258;12.690;2023-09-18T04:16:52;5.10;;;4.60;;
19341;SDS011;9807;48.258;12.690;2023-09-18T04:19:17;5.67;;;4.90;;
19341;SDS011;9807;48.258;12.690;2023-09-18T04:21:43;5.47;;;4.97;;
19341;SDS011;9807;48.258;12.690;2023-09-18T04:24:09;6.63;;;5.33;;
19341;SDS011;9807;48.258;12.690;2023-09-18T04:26:35;5.20;;;4.70;;
19341;SDS011;9807;48.258;12.690;2023-09-18T04:29:00;6.03;;;4.93;;
19341;SDS011;9807;48.258;12.690;2023-09-18T04:31:26;6.67;;;6.00;;
19341;SDS011;9807;48.258;12.690;2023-09-18T04:33:53;7.80;;;5.93;;
19341;SDS011;9807;48.258;12.690;2023-09-18T04:36:19;11.20;;;6.47;;
19341;SDS011;9807;48.258;12.690;2023-09-18T04:38:45;6.80;;;4.77;;
19341;SDS011;9807;48.258;12.690;2023-09-18T04:41:11;5.20;;;4.70;;
19341;SDS011;9807;48.258;12.690;2023-09-18T04:43:37;6.03;;;4.83;;
19341;SDS011;9807;48.258;12.690;2023-09-18T04:46:03;5.90;;;5.30;;
19341;SDS011;9807;48.258;12.690;2023-09-18T04:48:32;5.50;;;4.93;;
19341;SDS011;9807;48.258;12.690;2023-09-18T04:50:59;6.00;;;5.30;;
19341;SDS011;9807;48.258;12.690;2023-09-18T04:53:26;7.70;;;6.90;;
19341;SDS011;9807;48.258;12.690;2023-09-18T04:55:52;8.17;;;7.13;;
19341;SDS011;9807;48.258;12.690;2023-09-18T04:58:18;6.43;;;5.63;;
19341;SDS011;9807;48.258;12.690;2023-09-18T05:00:44;6.40;;;5.40;;
19341;SDS011;9807;48.258;12.690;2023-09-18T05:03:11;8.23;;;6.73;;
19341;SDS011;9807;48.258;12.690;2023-09-18T05:05:38;7.33;;;6.57;;
19341;SDS011;9807;48.258;12.690;2023-09-18T05:08:05;6.23;;;5.63;;
19341;SDS011;9807;48.258;12.690;2023-09-18T05:10:34;7.10;;;6.33;;
19341;SDS011;9807;48.258;12.690;2023-09-18T05:13:01;5.57;;;5.07;;
19341;SDS011;9807;48.258;12.690;2023-09-18T05:15:27;5.53;;;5.00;;
19341;SDS011;9807;48.258;12.690;2023-09-18T05:17:55;6.37;;;5.67;;
19341;SDS011;9807;48.258;12.690;2023-09-18T05:20:26;5.40;;;4.90;;
19341;SDS011;9807;48.258;12.690;2023-09-18T05:22:55;10.07;;;6.77;;
19341;SDS011;9807;48.258;12.690;2023-09-18T05:25:22;10.00;;;5.23;;
19341;SDS011;9807;48.258;12.690;2023-09-18T05:27:50;10.53;;;8.37;;
19341;SDS011;9807;48.258;12.690;2023-09-18T05:30:25;6.90;;;6.20;;
19341;SDS011;9807;48.258;12.690;2023-09-18T05:33:00;8.00;;;6.93;;
19341;SDS011;9807;48.258;12.690;2023-09-18T05:35:30;10.07;;;6.67;;
19341;SDS011;9807;48.258;12.690;2023-09-18T05:37:57;7.73;;;6.23;;
19341;SDS011;9807;48.258;12.690;2023-09-18T05:40:23;6.57;;;5.20;;
19341;SDS011;9807;48.258;12.690;2023-09-18T05:42:53;13.33;;;8.90;;
19341;SDS011;9807;48.258;12.690;2023-09-18T05:45:20;16.93;;;6.73;;
19341;SDS011;9807;48.258;12.690;2023-09-18T05:47:45;13.67;;;7.83;;
19341;SDS011;9807;48.258;12.690;2023-09-18T05:50:13;7.77;;;5.93;;
19341;SDS011;9807;48.258;12.690;2023-09-18T05:52:41;5.23;;;4.73;;
19341;SDS011;9807;48.258;12.690;2023-09-18T05:55:08;8.00;;;5.00;;
19341;SDS011;9807;48.258;12.690;2023-09-18T05:57:35;9.67;;;7.20;;
19341;SDS011;9807;48.258;12.690;2023-09-18T06:00:02;10.50;;;8.03;;
19341;SDS011;9807;48.258;12.690;2023-09-18T06:02:28;9.93;;;6.30;;
19341;SDS011;9807;48.258;12.690;2023-09-18T06:04:56;8.70;;;7.60;;
19341;SDS011;9807;48.258;12.690;2023-09-18T06:07:23;7.37;;;6.60;;
19341;SDS011;9807;48.258;12.690;2023-09-18T06:09:50;6.53;;;5.60;;
19341;SDS011;9807;48.258;12.690;2023-09-18T06:12:16;9.50;;;5.93;;
19341;SDS011;9807;48.258;12.690;2023-09-18T06:14:42;8.70;;;6.40;;
19341;SDS011;9807;48.258;12.690;2023-09-18T06:17:08;8.53;;;7.63;;
19341;SDS011;9807;48.258;12.690;2023-09-18T06:19:34;8.70;;;7.80;;
19341;SDS011;9807;48.258;12.690;2023-09-18T06:22:00;10.80;;;8.80;;
19341;SDS011;9807;48.258;12.690;2023-09-18T06:24:26;9.70;;;6.60;;
19341;SDS011;9807;48.258;12.690;2023-09-18T06:26:52;9.53;;;7.00;;
19341;SDS011;9807;48.258;12.690;2023-09-18T06:29:18;7.43;;;6.73;;
19341;SDS011;9807;48.258;12.690;2023-09-18T06:31:44;9.13;;;7.57;;
19341;SDS011;9807;48.258;12.690;2023-09-18T06:34:09;13.73;;;8.67;;
19341;SDS011;9807;48.258;12.690;2023-09-18T06:36:35;13.90;;;8.10;;
19341;SDS011;9807;48.258;12.690;2023-09-18T06:39:01;11.40;;;6.73;;
19341;SDS011;9807;48.258;12.690;2023-09-18T06:41:27;12.67;;;7.50;;
19341;SDS011;9807;48.258;12.690;2023-09-18T06:43:52;9.17;;;7.50;;
19341;SDS011;9807;48.258;12.690;2023-09-18T06:46:18;12.00;;;7.53;;
19341;SDS011;9807;48.258;12.690;2023-09-18T06:48:44;8.83;;;7.73;;
19341;SDS011;9807;48.258;12.690;2023-09-18T06:51:14;6.90;;;6.20;;
19341;SDS011;9807;48.258;12.690;2023-09-18T06:53:40;10.10;;;6.33;;
19341;SDS011;9807;48.258;12.690;2023-09-18T06:56:06;8.23;;;6.83;;
19341;SDS011;9807;48.258;12.690;2023-09-18T06:58:34;9.47;;;6.10;;
19341;SDS011;9807;48.258;12.690;2023-09-18T07:01:00;7.57;;;6.47;;
19341;SDS011;9807;48.258;12.690;2023-09-18T07:03:25;8.90;;;6.90;;
19341;SDS011;9807;48.258;12.690;2023-09-18T07:05:51;8.03;;;6.90;;
19341;SDS011;9807;48.258;12.690;2023-09-18T07:08:17;10.87;;;6.50;;
19341;SDS011;9807;48.258;12.690;2023-09-18T07:10:48;10.40;;;6.60;;
19341;SDS011;9807;48.258;12.690;2023-09-18T07:13:15;8.97;;;6.70;;
19341;SDS011;9807;48.258;12.690;2023-09-18T07:15:41;8.03;;;6.70;;
19341;SDS011;9807;48.258;12.690;2023-09-18T07:18:07;8.37;;;7.20;;
19341;SDS011;9807;48.258;12.690;2023-09-18T07:20:38;6.43;;;5.83;;
19341;SDS011;9807;48.258;12.690;2023-09-18T07:23:08;9.47;;;7.90;;
19341;SDS011;9807;48.258;12.690;2023-09-18T07:25:34;7.17;;;6.47;;
19341;SDS011;9807;48.258;12.690;2023-09-18T07:28:04;8.87;;;6.47;;
19341;SDS011;9807;48.258;12.690;2023-09-18T07:30:31;8.70;;;6.13;;
19341;SDS011;9807;48.258;12.690;2023-09-18T07:32:56;7.30;;;5.90;;
19341;SDS011;9807;48.258;12.690;2023-09-18T07:35:22;6.27;;;5.67;;
19341;SDS011;9807;48.258;12.690;2023-09-18T07:37:49;7.37;;;5.93;;
19341;SDS011;9807;48.258;12.690;2023-09-18T07:40:14;6.30;;;5.70;;
19341;SDS011;9807;48.258;12.690;2023-09-18T07:42:41;9.47;;;6.13;;
19341;SDS011;9807;48.258;12.690;2023-09-18T07:45:08;7.63;;;5.97;;
19341;SDS011;9807;48.258;12.690;2023-09-18T07:47:37;6.47;;;5.40;;
19341;SDS011;9807;48.258;12.690;2023-09-18T07:50:03;9.57;;;6.80;;
19341;SDS011;9807;48.258;12.690;2023-09-18T07:52:29;9.77;;;5.40;;
19341;SDS011;9807;48.258;12.690;2023-09-18T07:54:56;11.37;;;6.53;;
19341;SDS011;9807;48.258;12.690;2023-09-18T07:57:23;6.10;;;5.50;;
19341;SDS011;9807;48.258;12.690;2023-09-18T07:59:49;9.60;;;5.47;;
19341;SDS011;9807;48.258;12.690;2023-09-18T08:02:15;7.47;;;5.90;;
19341;SDS011;9807;48.258;12.690;2023-09-18T08:04:42;8.60;;;5.90;;
19341;SDS011;9807;48.258;12.690;2023-09-18T08:07:08;10.57;;;6.60;;
19341;SDS011;9807;48.258;12.690;2023-09-18T08:09:34;6.13;;;5.13;;
19341;SDS011;9807;48.258;12.690;2023-09-18T08:12:01;7.30;;;5.60;;
19341;SDS011;9807;48.258;12.690;2023-09-18T08:14:28;5.70;;;4.97;;
19341;SDS011;9807;48.258;12.690;2023-09-18T08:16:56;10.97;;;5.40;;
19341;SDS011;9807;48.258;12.690;2023-09-18T08:19:22;5.97;;;4.90;;
19341;SDS011;9807;48.258;12.690;2023-09-18T08:21:48;5.50;;;5.00;;
19341;SDS011;9807;48.258;12.690;2023-09-18T08:24:14;7.80;;;5.50;;
19341;SDS011;9807;48.258;12.690;2023-09-18T08:26:39;9.50;;;5.60;;
19341;SDS011;9807;48.258;12.690;2023-09-18T08:29:05;6.27;;;5.13;;
19341;SDS011;9807;48.258;12.690;2023-09-18T08:31:31;5.73;;;4.77;;
19341;SDS011;9807;48.258;12.690;2023-09-18T08:33:57;6.67;;;4.93;;
19341;SDS011;9807;48.258;12.690;2023-09-18T08:36:23;5.57;;;4.50;;
19341;SDS011;9807;48.258;12.690;2023-09-18T08:38:48;9.87;;;5.47;;
19341;SDS011;9807;48.258;12.690;2023-09-18T08:41:14;10.57;;;5.33;;
19341;SDS011;9807;48.258;12.690;2023-09-18T08:43:47;8.03;;;5.17;;
19341;SDS011;9807;48.258;12.690;2023-09-18T08:46:15;10.30;;;5.20;;
19341;SDS011;9807;48.258;12.690;2023-09-18T08:48:44;17.30;;;5.70;;
19341;SDS011;9807;48.258;12.690;2023-09-18T08:51:11;8.40;;;5.30;;
19341;SDS011;9807;48.258;12.690;2023-09-18T08:53:38;7.00;;;4.90;;
19341;SDS011;9807;48.258;12.690;2023-09-18T08:56:05;9.00;;;5.17;;
19341;SDS011;9807;48.258;12.690;2023-09-18T08:58:36;8.70;;;5.23;;
19341;SDS011;9807;48.258;12.690;2023-09-18T09:01:05;4.57;;;4.17;;
19341;SDS011;9807;48.258;12.690;2023-09-18T09:03:35;6.13;;;4.77;;
19341;SDS011;9807;48.258;12.690;2023-09-18T09:06:07;8.73;;;4.73;;
19341;SDS011;9807;48.258;12.690;2023-09-18T09:08:34;12.63;;;5.47;;
19341;SDS011;9807;48.258;12.690;2023-09-18T09:11:02;9.40;;;5.23;;
19341;SDS011;9807;48.258;12.690;2023-09-18T09:13:28;9.70;;;5.67;;
19341;SDS011;9807;48.258;12.690;2023-09-18T09:15:56;10.17;;;5.37;;
19341;SDS011;9807;48.258;12.690;2023-09-18T09:18:24;11.73;;;5.43;;
19341;SDS011;9807;48.258;12.690;2023-09-18T09:20:57;10.00;;;5.70;;
19341;SDS011;9807;48.258;12.690;2023-09-18T09:23:28;8.73;;;5.77;;
19341;SDS011;9807;48.258;12.690;2023-09-18T09:26:13;9.17;;;5.30;;
19341;SDS011;9807;48.258;12.690;2023-09-18T09:28:43;8.87;;;5.03;;
19341;SDS011;9807;48.258;12.690;2023-09-18T09:31:09;11.83;;;5.17;;
19341;SDS011;9807;48.258;12.690;2023-09-18T09:33:36;11.13;;;5.13;;
19341;SDS011;9807;48.258;12.690;2023-09-18T09:36:06;10.87;;;5.70;;
19341;SDS011;9807;48.258;12.690;2023-09-18T09:38:33;9.27;;;4.93;;
19341;SDS011;9807;48.258;12.690;2023-09-18T09:40:59;11.03;;;5.00;;
19341;SDS011;9807;48.258;12.690;2023-09-18T09:43:26;7.57;;;5.13;;
19341;SDS011;9807;48.258;12.690;2023-09-18T09:45:58;10.63;;;5.23;;
19341;SDS011;9807;48.258;12.690;2023-09-18T09:48:25;14.43;;;5.57;;
19341;SDS011;9807;48.258;12.690;2023-09-18T09:50:52;10.43;;;5.20;;
19341;SDS011;9807;48.258;12.690;2023-09-18T09:53:46;8.10;;;5.60;;
19341;SDS011;9807;48.258;12.690;2023-09-18T09:56:13;13.23;;;6.27;;
19341;SDS011;9807;48.258;12.690;2023-09-18T09:58:39;9.30;;;5.30;;
19341;SDS011;9807;48.258;12.690;2023-09-18T10:01:09;10.60;;;5.50;;
19341;SDS011;9807;48.258;12.690;2023-09-18T10:03:42;9.23;;;5.60;;
19341;SDS011;9807;48.258;12.690;2023-09-18T10:06:10;14.00;;;6.10;;
19341;SDS011;9807;48.258;12.690;2023-09-18T10:08:40;11.77;;;6.17;;
19341;SDS011;9807;48.258;12.690;2023-09-18T10:11:08;14.97;;;6.30;;
19341;SDS011;9807;48.258;12.690;2023-09-18T10:16:14;12.80;;;5.90;;
19341;SDS011;9807;48.258;12.690;2023-09-18T10:24:17;14.73;;;5.47;;
19341;SDS011;9807;48.258;12.690;2023-09-18T10:26:59;13.73;;;6.47;;
19341;SDS011;9807;48.258;12.690;2023-09-18T10:29:28;17.00;;;6.00;;
19341;SDS011;9807;48.258;12.690;2023-09-18T10:31:57;12.33;;;5.90;;
19341;SDS011;9807;48.258;12.690;2023-09-18T10:34:23;14.67;;;5.70;;
19341;SDS011;9807;48.258;12.690;2023-09-18T10:36:51;10.27;;;5.50;;
19341;SDS011;9807;48.258;12.690;2023-09-18T10:39:17;11.57;;;5.93;;
19341;SDS011;9807;48.258;12.690;2023-09-18T10:41:47;11.63;;;5.37;;
19341;SDS011;9807;48.258;12.690;2023-09-18T10:44:14;13.37;;;6.17;;
19341;SDS011;9807;48.258;12.690;2023-09-18T10:46:42;10.43;;;5.43;;
19341;SDS011;9807;48.258;12.690;2023-09-18T10:49:08;15.13;;;5.90;;
19341;SDS011;9807;48.258;12.690;2023-09-18T10:51:33;10.47;;;5.60;;
19341;SDS011;9807;48.258;12.690;2023-09-18T10:53:59;11.67;;;5.70;;
19341;SDS011;9807;48.258;12.690;2023-09-18T10:56:25;9.50;;;5.70;;
19341;SDS011;9807;48.258;12.690;2023-09-18T10:59:01;13.43;;;5.10;;
19341;SDS011;9807;48.258;12.690;2023-09-18T11:01:31;8.40;;;5.20;;
19341;SDS011;9807;48.258;12.690;2023-09-18T11:04:01;13.23;;;5.30;;
19341;SDS011;9807;48.258;12.690;2023-09-18T11:09:28;9.47;;;4.50;;
19341;SDS011;9807;48.258;12.690;2023-09-18T11:15:02;9.23;;;4.87;;
19341;SDS011;9807;48.258;12.690;2023-09-18T11:17:39;8.27;;;4.40;;
19341;SDS011;9807;48.258;12.690;2023-09-18T11:20:18;13.67;;;5.30;;
19341;SDS011;9807;48.258;12.690;2023-09-18T11:22:49;14.37;;;4.70;;
19341;SDS011;9807;48.258;12.690;2023-09-18T11:25:37;13.63;;;4.53;;
19341;SDS011;9807;48.258;12.690;2023-09-18T11:28:14;13.07;;;5.00;;
19341;SDS011;9807;48.258;12.690;2023-09-18T11:33:32;18.50;;;4.73;;
19341;SDS011;9807;48.258;12.690;2023-09-18T11:36:01;11.50;;;4.67;;
19341;SDS011;9807;48.258;12.690;2023-09-18T11:38:32;17.37;;;4.60;;
19341;SDS011;9807;48.258;12.690;2023-09-18T11:41:26;15.40;;;5.30;;
19341;SDS011;9807;48.258;12.690;2023-09-18T11:46:45;15.27;;;5.00;;
19341;SDS011;9807;48.258;12.690;2023-09-18T11:49:19;10.50;;;5.27;;
19341;SDS011;9807;48.258;12.690;2023-09-18T11:51:48;10.67;;;4.80;;
19341;SDS011;9807;48.258;12.690;2023-09-18T11:54:15;17.87;;;5.43;;
19341;SDS011;9807;48.258;12.690;2023-09-18T11:56:42;15.83;;;5.20;;
19341;SDS011;9807;48.258;12.690;2023-09-18T11:59:09;16.27;;;5.57;;
19341;SDS011;9807;48.258;12.690;2023-09-18T12:01:35;9.83;;;5.20;;
19341;SDS011;9807;48.258;12.690;2023-09-18T12:04:04;10.33;;;5.17;;
19341;SDS011;9807;48.258;12.690;2023-09-18T12:06:33;12.97;;;5.33;;
19341;SDS011;9807;48.258;12.690;2023-09-18T12:09:05;12.53;;;5.10;;
19341;SDS011;9807;48.258;12.690;2023-09-18T12:11:32;18.10;;;4.70;;
19341;SDS011;9807;48.258;12.690;2023-09-18T12:14:04;14.60;;;4.53;;
19341;SDS011;9807;48.258;12.690;2023-09-18T12:16:30;18.33;;;5.30;;
19341;SDS011;9807;48.258;12.690;2023-09-18T12:19:03;10.63;;;4.30;;
19341;SDS011;9807;48.258;12.690;2023-09-18T12:21:31;11.20;;;4.40;;
19341;SDS011;9807;48.258;12.690;2023-09-18T12:23:57;11.73;;;4.33;;
19341;SDS011;9807;48.258;12.690;2023-09-18T12:26:22;13.37;;;4.07;;
19341;SDS011;9807;48.258;12.690;2023-09-18T12:28:51;12.77;;;4.10;;
19341;SDS011;9807;48.258;12.690;2023-09-18T12:31:17;18.00;;;4.50;;
19341;SDS011;9807;48.258;12.690;2023-09-18T12:33:43;14.43;;;4.03;;
19341;SDS011;9807;48.258;12.690;2023-09-18T12:36:09;16.53;;;3.97;;
19341;SDS011;9807;48.258;12.690;2023-09-18T12:38:36;13.93;;;4.17;;
19341;SDS011;9807;48.258;12.690;2023-09-18T12:41:03;21.37;;;4.60;;
19341;SDS011;9807;48.258;12.690;2023-09-18T12:43:50;12.60;;;3.90;;
19341;SDS011;9807;48.258;12.690;2023-09-18T12:46:16;10.00;;;4.03;;
19341;SDS011;9807;48.258;12.690;2023-09-18T12:48:44;15.13;;;4.10;;
19341;SDS011;9807;48.258;12.690;2023-09-18T12:51:11;15.63;;;4.03;;
19341;SDS011;9807;48.258;12.690;2023-09-18T12:53:39;15.57;;;4.03;;
19341;SDS011;9807;48.258;12.690;2023-09-18T12:56:11;13.43;;;4.03;;
19341;SDS011;9807;48.258;12.690;2023-09-18T12:58:38;20.37;;;3.90;;
19341;SDS011;9807;48.258;12.690;2023-09-18T13:01:10;13.43;;;3.83;;
19341;SDS011;9807;48.258;12.690;2023-09-18T13:06:15;16.77;;;4.07;;
19341;SDS011;9807;48.258;12.690;2023-09-18T13:08:42;12.43;;;3.17;;
19341;SDS011;9807;48.258;12.690;2023-09-18T13:11:09;16.37;;;4.07;;
19341;SDS011;9807;48.258;12.690;2023-09-18T13:13:36;16.97;;;3.53;;
19341;SDS011;9807;48.258;12.690;2023-09-18T13:16:04;13.67;;;3.43;;
19341;SDS011;9807;48.258;12.690;2023-09-18T13:18:33;15.40;;;3.80;;
19341;SDS011;9807;48.258;12.690;2023-09-18T13:20:59;13.90;;;3.70;;
19341;SDS011;9807;48.258;12.690;2023-09-18T13:23:30;16.20;;;3.70;;
19341;SDS011;9807;48.258;12.690;2023-09-18T13:26:04;18.67;;;3.20;;
19341;SDS011;9807;48.258;12.690;2023-09-18T13:28:31;13.63;;;3.27;;
19341;SDS011;9807;48.258;12.690;2023-09-18T13:30:59;9.87;;;2.90;;
19341;SDS011;9807;48.258;12.690;2023-09-18T13:33:26;20.37;;;3.17;;
19341;SDS011;9807;48.258;12.690;2023-09-18T13:35:52;13.57;;;2.93;;
19341;SDS011;9807;48.258;12.690;2023-09-18T13:38:19;13.73;;;3.07;;
19341;SDS011;9807;48.258;12.690;2023-09-18T13:40:47;14.10;;;2.73;;
19341;SDS011;9807;48.258;12.690;2023-09-18T13:43:14;10.37;;;2.70;;
19341;SDS011;9807;48.258;12.690;2023-09-18T13:45:40;12.50;;;2.47;;
19341;SDS011;9807;48.258;12.690;2023-09-18T13:48:07;11.00;;;2.57;;
19341;SDS011;9807;48.258;12.690;2023-09-18T13:50:34;6.47;;;1.77;;
19341;SDS011;9807;48.258;12.690;2023-09-18T13:53:01;11.00;;;2.00;;
19341;SDS011;9807;48.258;12.690;2023-09-18T13:55:29;8.63;;;1.90;;
19341;SDS011;9807;48.258;12.690;2023-09-18T13:57:56;8.77;;;2.13;;
19341;SDS011;9807;48.258;12.690;2023-09-18T14:00:22;5.10;;;1.60;;
19341;SDS011;9807;48.258;12.690;2023-09-18T14:02:48;10.70;;;2.00;;
19341;SDS011;9807;48.258;12.690;2023-09-18T14:05:13;8.73;;;2.13;;
19341;SDS011;9807;48.258;12.690;2023-09-18T14:07:40;9.73;;;1.93;;
19341;SDS011;9807;48.258;12.690;2023-09-18T14:10:06;7.83;;;1.90;;
19341;SDS011;9807;48.258;12.690;2023-09-18T14:12:35;7.77;;;1.50;;
19341;SDS011;9807;48.258;12.690;2023-09-18T14:15:01;13.40;;;2.57;;
19341;SDS011;9807;48.258;12.690;2023-09-18T14:17:29;3.47;;;1.53;;
19341;SDS011;9807;48.258;12.690;2023-09-18T14:19:56;4.57;;;1.40;;
19341;SDS011;9807;48.258;12.690;2023-09-18T14:22:21;4.47;;;1.20;;
19341;SDS011;9807;48.258;12.690;2023-09-18T14:24:47;10.53;;;1.50;;
19341;SDS011;9807;48.258;12.690;2023-09-18T14:27:13;2.70;;;1.10;;
19341;SDS011;9807;48.258;12.690;2023-09-18T14:29:39;6.43;;;1.30;;
19341;SDS011;9807;48.258;12.690;2023-09-18T14:32:05;2.23;;;1.30;;
19341;SDS011;9807;48.258;12.690;2023-09-18T14:34:33;3.90;;;1.10;;
19341;SDS011;9807;48.258;12.690;2023-09-18T14:37:00;4.73;;;1.20;;
19341;SDS011;9807;48.258;12.690;2023-09-18T14:39:32;4.10;;;1.20;;
19341;SDS011;9807;48.258;12.690;2023-09-18T14:41:58;6.83;;;2.17;;
19341;SDS011;9807;48.258;12.690;2023-09-18T14:44:27;7.73;;;1.50;;
19341;SDS011;9807;48.258;12.690;2023-09-18T14:46:53;2.60;;;1.23;;
19341;SDS011;9807;48.258;12.690;2023-09-18T14:49:19;4.70;;;1.57;;
19341;SDS011;9807;48.258;12.690;2023-09-18T14:51:44;6.83;;;1.30;;
19341;SDS011;9807;48.258;12.690;2023-09-18T14:54:11;3.80;;;1.47;;
19341;SDS011;9807;48.258;12.690;2023-09-18T14:56:36;6.13;;;1.60;;
19341;SDS011;9807;48.258;12.690;2023-09-18T14:59:02;7.63;;;1.57;;
19341;SDS011;9807;48.258;12.690;2023-09-18T15:01:29;4.27;;;1.37;;
19341;SDS011;9807;48.258;12.690;2023-09-18T15:03:55;4.63;;;1.10;;
19341;SDS011;9807;48.258;12.690;2023-09-18T15:06:21;4.70;;;1.37;;
19341;SDS011;9807;48.258;12.690;2023-09-18T15:08:47;4.10;;;1.13;;